Time;durP1;ratioP1;P1;durP2;ratioP2;P2;SDS_P1;SDS_P2;PMS_P1;PMS_P2;Temp;Humidity;BMP_temperature;BMP_pressure;BME280_temperature;BME280_humidity;BME280_pressure;Samples;Min_cycle;Max_cycle;Signal;HPM_P1;HPM_P2
2021/12/13 00:01:31;;;;;;;13.50;3.27;;;23.40;98.90;;;;;;5071107;28;20539;-66
2021/12/13 00:04:18;;;;;;;8.87;2.43;;;23.50;98.60;;;;;;5073321;28;20202;-65
2021/12/13 00:06:49;;;;;;;11.40;2.67;;;23.50;98.60;;;;;;5068032;28;20625;-65
2021/12/13 00:09:19;;;;;;;12.50;2.40;;;23.60;98.30;;;;;;5072704;28;20538;-66
2021/12/13 00:11:51;;;;;;;8.47;2.10;;;23.40;98.90;;;;;;5072903;28;20202;-65
2021/12/13 00:14:28;;;;;;;12.80;2.00;;;23.70;98.60;;;;;;5071362;28;21857;-67
2021/12/13 00:17:11;;;;;;;12.67;2.10;;;23.90;98.00;;;;;;5072383;28;20186;-66
2021/12/13 00:19:50;;;;;;;13.23;2.43;;;23.70;98.00;;;;;;5070706;28;20175;-66
2021/12/13 00:22:32;;;;;;;6.67;2.20;;;23.70;98.10;;;;;;5072716;28;20183;-66
2021/12/13 00:25:08;;;;;;;17.17;2.30;;;23.80;98.00;;;;;;5068409;28;20218;-68
2021/12/13 00:27:41;;;;;;;11.67;2.47;;;23.80;98.30;;;;;;5071733;28;20190;-66
2021/12/13 00:30:47;;;;;;;11.50;2.37;;;23.70;98.10;;;;;;5071337;28;20195;-66
2021/12/13 00:33:38;;;;;;;10.80;2.73;;;24.10;98.40;;;;;;5063253;28;20518;-65
2021/12/13 00:36:25;;;;;;;13.43;2.30;;;24.20;98.10;;;;;;5072513;28;20187;-67
2021/12/13 00:38:59;;;;;;;10.33;2.27;;;24.30;97.60;;;;;;5071570;28;20601;-68
2021/12/13 00:41:29;;;;;;;10.47;1.83;;;24.40;97.50;;;;;;5068210;28;20246;-67
2021/12/13 00:44:11;;;;;;;11.87;2.10;;;24.40;98.00;;;;;;5067242;28;20250;-66
2021/12/13 00:46:41;;;;;;;9.23;1.83;;;24.50;97.80;;;;;;5068969;28;20201;-66
2021/12/13 00:49:12;;;;;;;12.90;2.57;;;24.70;97.10;;;;;;5070030;28;20218;-66
2021/12/13 00:51:47;;;;;;;13.77;2.40;;;24.90;97.20;;;;;;5070559;28;20664;-66
2021/12/13 00:54:23;;;;;;;7.57;1.80;;;24.70;97.00;;;;;;5069790;28;20330;-67
2021/12/13 00:57:03;;;;;;;9.90;2.07;;;24.80;97.30;;;;;;5067163;28;20179;-68
2021/12/13 00:59:53;;;;;;;7.77;2.10;;;24.60;97.20;;;;;;5070245;28;20233;-65
2021/12/13 01:02:27;;;;;;;9.50;2.40;;;24.50;97.30;;;;;;5068840;28;20194;-67
2021/12/13 01:05:17;;;;;;;15.23;2.40;;;24.30;97.80;;;;;;5069438;28;20664;-66
2021/12/13 01:08:03;;;;;;;10.43;2.27;;;24.20;97.60;;;;;;5061076;28;20215;-66
2021/12/13 01:10:40;;;;;;;6.87;2.03;;;24.50;97.40;;;;;;5068513;28;20179;-65
2021/12/13 01:13:13;;;;;;;10.47;2.27;;;24.70;97.70;;;;;;5070905;28;20550;-68
2021/12/13 01:15:51;;;;;;;11.30;2.43;;;24.70;97.70;;;;;;5070505;28;20179;-66
2021/12/13 01:18:45;;;;;;;7.53;1.77;;;24.80;97.50;;;;;;5066983;28;20187;-66
2021/12/13 01:21:38;;;;;;;6.97;1.90;;;24.70;97.20;;;;;;5070689;28;20232;-67
2021/12/13 01:24:30;;;;;;;12.13;2.60;;;24.60;97.20;;;;;;5065747;28;20622;-65
2021/12/13 01:27:01;;;;;;;10.47;2.40;;;24.80;97.30;;;;;;5068806;28;20206;-66
2021/12/13 01:29:29;;;;;;;13.17;2.13;;;24.90;97.40;;;;;;5067027;28;20175;-65
2021/12/13 01:32:01;;;;;;;12.90;2.40;;;24.80;97.00;;;;;;5069272;28;20681;-66
2021/12/13 01:34:31;;;;;;;12.60;2.30;;;24.70;97.60;;;;;;5068876;28;20660;-65
2021/12/13 01:37:12;;;;;;;12.83;2.87;;;24.80;97.50;;;;;;5068417;28;20228;-66
2021/12/13 01:39:44;;;;;;;8.00;1.90;;;24.90;97.30;;;;;;5069530;28;20191;-66
2021/12/13 01:42:18;;;;;;;10.63;2.30;;;25.10;97.50;;;;;;5069858;28;20703;-66
2021/12/13 01:44:51;;;;;;;10.07;2.20;;;25.30;97.30;;;;;;5070450;28;20250;-66
2021/12/13 01:47:29;;;;;;;9.67;2.07;;;25.20;97.10;;;;;;5068414;28;20566;-66
2021/12/13 01:50:16;;;;;;;6.70;2.27;;;25.20;97.10;;;;;;5065913;28;20259;-66
2021/12/13 01:52:46;;;;;;;13.07;2.30;;;25.10;97.00;;;;;;5052521;28;20586;-67
2021/12/13 01:55:36;;;;;;;11.40;2.13;;;25.00;97.10;;;;;;5066408;28;20254;-67
2021/12/13 01:59:04;;;;;;;10.60;1.97;;;25.20;97.50;;;;;;5061703;28;20208;-68
2021/12/13 02:01:19;;;;;;;7.43;2.10;;;25.30;97.10;;;;;;5051861;28;20195;-66
2021/12/13 02:03:55;;;;;;;8.57;2.10;;;25.50;97.20;;;;;;5070722;28;20198;-69
2021/12/13 02:06:49;;;;;;;15.93;2.87;;;25.70;97.10;;;;;;5068613;28;20190;-68
2021/12/13 02:09:21;;;;;;;7.80;1.97;;;25.50;96.90;;;;;;5068023;28;20178;-65
2021/12/13 02:11:52;;;;;;;17.50;2.37;;;25.10;97.10;;;;;;5068839;28;20266;-68
2021/12/13 02:14:24;;;;;;;13.20;2.77;;;25.20;97.20;;;;;;5068926;28;20183;-68
2021/12/13 02:17:12;;;;;;;14.13;1.93;;;24.90;97.40;;;;;;5069340;28;20191;-66
2021/12/13 02:19:45;;;;;;;15.73;2.57;;;25.20;97.40;;;;;;5079016;28;20225;-66
2021/12/13 02:23:01;;;;;;;8.47;2.33;;;25.30;97.40;;;;;;5070180;28;20191;-66
2021/12/13 02:25:38;;;;;;;11.67;2.57;;;25.70;97.30;;;;;;5056975;28;20681;-67
2021/12/13 02:28:14;;;;;;;12.33;2.57;;;25.70;97.10;;;;;;5070463;28;20190;-66
2021/12/13 02:30:53;;;;;;;13.40;2.30;;;25.90;97.10;;;;;;5069908;28;20537;-67
2021/12/13 02:33:30;;;;;;;9.93;2.43;;;25.80;96.40;;;;;;5068351;28;20193;-65
2021/12/13 02:36:02;;;;;;;12.00;2.53;;;26.00;97.20;;;;;;5065223;28;20179;-66
2021/12/13 02:38:29;;;;;;;7.50;2.07;;;26.20;96.50;;;;;;5068035;28;20183;-65
2021/12/13 02:40:59;;;;;;;17.93;2.90;;;26.30;96.50;;;;;;5068542;28;20254;-66
2021/12/13 02:43:33;;;;;;;10.73;2.00;;;26.50;96.40;;;;;;5065890;28;20202;-66
2021/12/13 02:46:01;;;;;;;9.97;2.43;;;26.40;96.10;;;;;;5069694;28;20228;-65
2021/12/13 02:48:31;;;;;;;11.80;2.20;;;26.60;96.10;;;;;;5068178;28;20245;-65
2021/12/13 02:51:20;;;;;;;42.00;5.63;;;26.60;96.20;;;;;;5067823;28;20201;-65
2021/12/13 02:54:00;;;;;;;13.67;2.43;;;26.30;96.10;;;;;;5069350;28;20230;-65
2021/12/13 02:56:34;;;;;;;11.73;2.40;;;26.60;96.00;;;;;;5070336;28;20773;-65
2021/12/13 02:59:06;;;;;;;7.03;2.87;;;27.00;95.50;;;;;;5068160;28;20186;-65
2021/12/13 03:02:00;;;;;;;11.63;2.50;;;26.90;95.90;;;;;;5068936;28;20171;-64
2021/12/13 03:04:29;;;;;;;12.20;2.50;;;27.00;95.40;;;;;;5064262;28;20298;-65
2021/12/13 03:07:19;;;;;;;7.33;2.10;;;27.00;95.30;;;;;;5064781;28;20646;-66
2021/12/13 03:09:49;;;;;;;11.67;3.03;;;27.10;95.30;;;;;;5067702;28;20281;-66
2021/12/13 03:12:18;;;;;;;11.60;2.20;;;27.10;95.60;;;;;;5069782;28;20191;-67
2021/12/13 03:15:16;;;;;;;14.10;2.70;;;27.10;95.20;;;;;;5067157;28;20534;-68
2021/12/13 03:17:54;;;;;;;6.27;2.13;;;27.20;95.60;;;;;;5056907;28;20584;-67
2021/12/13 03:20:54;;;;;;;11.37;2.33;;;27.20;95.40;;;;;;5065284;28;20198;-66
2021/12/13 03:23:36;;;;;;;5.93;1.83;;;27.70;95.00;;;;;;5068367;28;20187;-66
2021/12/13 03:26:28;;;;;;;12.87;2.73;;;27.90;94.90;;;;;;5066248;28;20237;-66
2021/12/13 03:29:16;;;;;;;10.03;2.27;;;27.70;94.60;;;;;;5068157;28;20232;-67
2021/12/13 03:31:49;;;;;;;10.53;2.70;;;27.40;94.80;;;;;;5068713;28;20652;-66
2021/12/13 03:34:35;;;;;;;9.50;2.80;;;27.40;94.90;;;;;;5065894;28;20639;-67
2021/12/13 03:37:16;;;;;;;11.33;2.27;;;27.30;95.20;;;;;;5066262;28;20738;-68
2021/12/13 03:39:50;;;;;;;9.13;2.20;;;27.40;94.80;;;;;;5067235;28;20641;-66
2021/12/13 03:42:25;;;;;;;10.83;2.10;;;27.70;94.90;;;;;;5064575;28;20187;-66
2021/12/13 03:45:34;;;;;;;13.97;2.80;;;27.80;94.90;;;;;;5067319;28;20225;-65
2021/12/13 03:48:03;;;;;;;8.97;2.20;;;28.40;94.80;;;;;;5036428;28;20564;-65
2021/12/13 03:50:37;;;;;;;9.43;2.40;;;28.40;94.40;;;;;;5066367;28;20180;-67
2021/12/13 03:53:13;;;;;;;6.37;2.13;;;28.20;94.30;;;;;;5066589;28;20225;-67
2021/12/13 03:55:45;;;;;;;7.60;2.60;;;28.00;94.20;;;;;;5066524;28;20322;-67
2021/12/13 03:58:16;;;;;;;11.83;2.97;;;28.10;94.20;;;;;;5068151;28;20183;-67
2021/12/13 04:00:50;;;;;;;7.27;2.50;;;28.00;94.30;;;;;;5064684;28;20195;-67
2021/12/13 04:03:20;;;;;;;11.40;3.57;;;28.40;94.50;;;;;;5068081;28;20187;-64
2021/12/13 04:05:48;;;;;;;11.53;2.80;;;28.50;94.20;;;;;;5066208;28;20584;-67
2021/12/13 04:08:20;;;;;;;8.80;2.83;;;28.40;94.10;;;;;;5068736;28;20526;-66
2021/12/13 04:11:00;;;;;;;12.83;2.53;;;28.70;93.90;;;;;;5064604;28;20191;-67
2021/12/13 04:13:34;;;;;;;9.17;2.17;;;28.60;94.00;;;;;;5063834;28;20207;-66
2021/12/13 04:16:33;;;;;;;9.33;2.83;;;28.40;93.60;;;;;;5070128;28;20267;-65
2021/12/13 04:19:08;;;;;;;8.70;2.00;;;28.50;93.80;;;;;;5072058;28;20279;-67
2021/12/13 04:21:59;;;;;;;9.93;2.60;;;28.60;94.00;;;;;;5071779;28;20195;-66
2021/12/13 04:24:57;;;;;;;8.20;1.73;;;28.60;93.80;;;;;;5034516;28;20241;-66
2021/12/13 04:27:34;;;;;;;7.90;1.93;;;28.70;93.50;;;;;;5072467;28;20270;-66
2021/12/13 04:30:19;;;;;;;11.43;2.27;;;28.30;94.00;;;;;;5070323;28;20215;-66
2021/12/13 04:32:50;;;;;;;10.30;2.60;;;28.40;93.70;;;;;;5071626;28;20197;-69
2021/12/13 04:35:19;;;;;;;11.60;2.50;;;28.60;93.80;;;;;;5071705;28;20195;-67
2021/12/13 04:37:53;;;;;;;9.00;2.33;;;28.80;93.90;;;;;;5072169;28;20279;-65
2021/12/13 04:40:28;;;;;;;7.07;1.70;;;28.90;93.30;;;;;;5072356;28;20645;-68
2021/12/13 04:43:13;;;;;;;11.97;2.37;;;28.60;93.90;;;;;;5072297;28;20432;-65
2021/12/13 04:45:46;;;;;;;9.17;2.50;;;28.90;93.70;;;;;;5071448;28;20215;-67
2021/12/13 04:48:20;;;;;;;9.07;2.50;;;29.20;93.40;;;;;;5069989;28;20302;-67
2021/12/13 04:51:09;;;;;;;7.20;1.63;;;29.50;93.00;;;;;;5071944;28;20183;-68
2021/12/13 04:53:45;;;;;;;11.07;1.97;;;29.00;93.20;;;;;;5068022;28;20187;-68
2021/12/13 04:56:16;;;;;;;9.57;2.10;;;29.20;93.30;;;;;;5069792;28;20199;-67
2021/12/13 04:58:47;;;;;;;13.40;2.50;;;28.80;93.30;;;;;;5070384;28;20202;-67
2021/12/13 05:01:17;;;;;;;12.20;2.40;;;29.20;93.10;;;;;;5072121;28;20198;-65
2021/12/13 05:03:56;;;;;;;9.57;2.60;;;29.20;93.00;;;;;;5068882;28;20284;-67
2021/12/13 05:06:34;;;;;;;13.13;2.43;;;29.70;93.00;;;;;;5070920;28;20231;-67
2021/12/13 05:09:06;;;;;;;11.65;2.15;;;29.20;92.50;;;;;;5069551;28;20175;-67
2021/12/13 05:11:41;;;;;;;9.07;2.13;;;29.50;92.40;;;;;;5066877;28;20637;-67
2021/12/13 05:14:09;;;;;;;9.87;2.17;;;29.10;92.50;;;;;;5071745;28;20179;-69
2021/12/13 05:16:54;;;;;;;7.40;1.90;;;28.70;92.60;;;;;;5071340;28;20268;-67
2021/12/13 05:19:35;;;;;;;7.70;1.90;;;28.90;92.70;;;;;;5070888;28;20958;-67
2021/12/13 05:22:06;;;;;;;12.13;2.80;;;29.10;92.90;;;;;;5070194;28;20278;-67
2021/12/13 05:24:41;;;;;;;12.73;2.63;;;29.50;92.60;;;;;;5065760;28;20234;-68
2021/12/13 05:27:14;;;;;;;11.80;2.10;;;29.70;92.40;;;;;;5070557;28;21507;-66
2021/12/13 05:29:47;;;;;;;10.07;1.80;;;29.60;92.20;;;;;;5069688;28;20179;-67
2021/12/13 05:32:27;;;;;;;6.63;1.37;;;29.30;92.20;;;;;;5069294;28;20657;-67
2021/12/13 05:35:04;;;;;;;9.73;1.83;;;29.50;92.20;;;;;;5071683;28;20203;-67
2021/12/13 05:37:48;;;;;;;6.13;1.73;;;29.40;92.70;;;;;;5070096;28;20252;-66
2021/12/13 05:40:36;;;;;;;9.97;2.00;;;29.90;92.30;;;;;;5068560;28;20736;-66
2021/12/13 05:43:33;;;;;;;7.45;1.80;;;29.90;92.10;;;;;;5069046;28;20205;-67
2021/12/13 05:46:11;;;;;;;10.23;1.67;;;29.60;91.80;;;;;;5069567;28;20715;-67
2021/12/13 05:49:00;;;;;;;9.90;2.23;;;29.00;92.00;;;;;;5068832;28;20178;-66
2021/12/13 05:51:34;;;;;;;5.00;1.63;;;29.10;92.40;;;;;;5071088;28;20274;-68
2021/12/13 05:54:10;;;;;;;6.17;2.07;;;29.60;91.90;;;;;;5050248;28;20681;-67
2021/12/13 05:56:39;;;;;;;13.17;2.10;;;29.70;92.00;;;;;;5068501;28;20210;-69
2021/12/13 05:59:21;;;;;;;6.20;1.70;;;29.30;91.90;;;;;;5069896;28;20689;-67
2021/12/13 06:02:11;;;;;;;10.18;2.28;;;29.70;92.00;;;;;;5069665;28;20732;-67
2021/12/13 06:05:08;;;;;;;9.80;2.20;;;30.30;91.60;;;;;;5068753;28;20199;-67
2021/12/13 06:07:40;;;;;;;6.82;1.60;;;29.20;92.30;;;;;;5070800;28;20171;-69
2021/12/13 06:10:18;;;;;;;12.30;2.20;;;29.00;92.30;;;;;;5070550;28;20191;-68
2021/12/13 06:12:58;;;;;;;8.47;1.67;;;29.30;91.90;;;;;;5065965;28;20267;-66
2021/12/13 06:15:30;;;;;;;7.55;1.50;;;29.50;91.90;;;;;;5066798;28;20288;-68
2021/12/13 06:18:07;;;;;;;8.52;2.05;;;29.90;91.40;;;;;;5066700;28;20217;-68
2021/12/13 06:21:24;;;;;;;8.13;1.92;;;29.70;91.50;;;;;;5065447;28;20170;-66
2021/12/13 06:23:52;;;;;;;10.25;2.30;;;28.70;92.20;;;;;;5006255;28;20189;-67
2021/12/13 06:26:25;;;;;;;6.97;1.70;;;28.60;92.20;;;;;;5063947;28;20592;-67
2021/12/13 06:29:00;;;;;;;6.43;2.00;;;28.00;92.90;;;;;;5069135;28;20738;-66
2021/12/13 06:31:40;;;;;;;6.50;1.70;;;28.10;92.70;;;;;;5069757;28;20202;-66
2021/12/13 06:34:15;;;;;;;5.83;1.60;;;28.30;92.70;;;;;;5068065;28;20190;-70
2021/12/13 06:36:49;;;;;;;9.67;1.90;;;27.80;92.60;;;;;;5070448;28;20194;-67
2021/12/13 06:39:18;;;;;;;7.97;1.80;;;28.30;92.90;;;;;;5070755;28;20179;-69
2021/12/13 06:41:47;;;;;;;9.63;2.53;;;28.30;91.90;;;;;;5070560;28;20217;-67
2021/12/13 06:44:19;;;;;;;10.17;1.93;;;27.30;93.20;;;;;;5071790;28;20199;-67
2021/12/13 06:47:11;;;;;;;5.27;2.20;;;27.20;93.70;;;;;;5067555;28;20258;-69
2021/12/13 06:49:44;;;;;;;11.63;2.60;;;27.50;93.60;;;;;;5069835;28;20182;-67
2021/12/13 06:52:15;;;;;;;8.87;2.10;;;27.00;93.50;;;;;;5065108;28;20219;-67
2021/12/13 06:54:42;;;;;;;8.80;1.80;;;27.60;93.50;;;;;;5067022;28;20647;-67
2021/12/13 06:57:17;;;;;;;10.13;1.80;;;27.50;93.30;;;;;;5063158;28;20176;-69
2021/12/13 06:59:52;;;;;;;8.60;2.00;;;27.60;93.30;;;;;;5067253;28;20178;-68
2021/12/13 07:02:38;;;;;;;8.23;1.97;;;27.30;93.30;;;;;;5076465;28;20565;-69
2021/12/13 07:05:23;;;;;;;8.93;2.03;;;26.70;94.20;;;;;;5068050;28;20213;-67
2021/12/13 07:07:57;;;;;;;9.03;2.07;;;27.20;94.10;;;;;;5069563;28;20183;-67
2021/12/13 07:10:46;;;;;;;6.60;1.87;;;27.60;93.20;;;;;;5071476;28;20274;-69
2021/12/13 07:13:27;;;;;;;9.53;2.87;;;26.90;94.00;;;;;;5069373;28;20217;-69
2021/12/13 07:16:17;;;;;;;11.43;3.23;;;26.20;94.30;;;;;;5070333;28;20183;-69
2021/12/13 07:19:22;;;;;;;7.90;2.83;;;26.30;94.80;;;;;;5071526;28;20248;-67
2021/12/13 07:21:59;;;;;;;8.37;2.33;;;26.00;95.00;;;;;;5035730;28;20510;-69
2021/12/13 07:24:29;;;;;;;8.17;2.07;;;25.50;95.50;;;;;;5070689;28;20846;-67
2021/12/13 07:27:04;;;;;;;10.90;2.17;;;25.10;96.30;;;;;;5063925;28;20176;-66
2021/12/13 07:29:42;;;;;;;9.03;1.93;;;24.80;96.40;;;;;;5071071;28;20175;-69
2021/12/13 07:32:12;;;;;;;8.87;2.00;;;24.70;96.90;;;;;;5070811;28;20189;-69
2021/12/13 07:34:58;;;;;;;12.17;2.03;;;24.30;97.40;;;;;;5070994;28;20175;-68
2021/12/13 07:37:51;;;;;;;13.37;2.77;;;24.10;97.90;;;;;;5071580;28;20217;-68
2021/12/13 07:40:31;;;;;;;6.73;1.70;;;23.70;98.40;;;;;;5066155;28;20646;-68
2021/12/13 07:43:04;;;;;;;12.63;2.20;;;23.60;98.90;;;;;;5070385;28;20728;-69
2021/12/13 07:45:46;;;;;;;11.47;1.90;;;23.60;99.00;;;;;;5071256;28;20207;-68
2021/12/13 07:48:35;;;;;;;11.03;2.10;;;23.40;98.80;;;;;;5069974;28;20172;-69
2021/12/13 07:51:10;;;;;;;8.33;2.03;;;23.20;99.00;;;;;;5070182;28;20602;-68
2021/12/13 07:53:58;;;;;;;10.50;2.13;;;23.00;99.50;;;;;;5072848;28;20264;-67
2021/12/13 07:56:38;;;;;;;7.93;1.83;;;22.90;99.90;;;;;;5069839;28;20293;-69
2021/12/13 07:59:25;;;;;;;9.77;2.00;;;22.60;99.90;;;;;;5070757;28;20696;-69
2021/12/13 08:02:09;;;;;;;11.63;3.10;;;22.60;99.90;;;;;;5074934;28;20209;-68
2021/12/13 08:04:51;;;;;;;10.30;2.30;;;22.70;99.90;;;;;;5074650;28;20213;-68
2021/12/13 08:07:28;;;;;;;10.37;2.00;;;22.70;99.90;;;;;;5075082;28;20244;-68
2021/12/13 08:09:59;;;;;;;13.27;2.77;;;22.50;99.90;;;;;;5073560;28;20672;-69
2021/12/13 08:12:34;;;;;;;9.67;2.40;;;22.70;99.90;;;;;;5074532;28;20267;-67
2021/12/13 08:15:22;;;;;;;12.13;2.73;;;22.70;99.90;;;;;;5073281;28;20644;-67
2021/12/13 08:17:53;;;;;;;10.00;2.27;;;22.50;99.90;;;;;;5074477;28;20183;-69
2021/12/13 08:20:29;;;;;;;11.07;2.90;;;22.20;99.90;;;;;;5074785;28;20290;-68
2021/12/13 08:22:58;;;;;;;14.13;2.47;;;22.00;99.90;;;;;;5074136;28;20187;-69
2021/12/13 08:25:30;;;;;;;9.10;2.20;;;21.80;99.90;;;;;;5074046;28;20242;-67
2021/12/13 08:28:04;;;;;;;12.20;2.00;;;21.80;99.90;;;;;;5074670;28;20183;-69
2021/12/13 08:30:35;;;;;;;12.53;2.03;;;21.60;99.90;;;;;;5074521;28;20177;-68
2021/12/13 08:33:15;;;;;;;9.07;2.10;;;21.70;99.90;;;;;;5073591;28;20187;-68
2021/12/13 08:36:09;;;;;;;7.07;2.13;;;21.70;99.90;;;;;;5055053;28;20190;-67
2021/12/13 08:38:50;;;;;;;6.20;1.70;;;21.50;99.90;;;;;;5073144;28;20195;-67
2021/12/13 08:41:41;;;;;;;11.30;2.37;;;21.50;99.90;;;;;;5055867;28;20401;-69
2021/12/13 08:44:11;;;;;;;8.07;1.90;;;21.50;99.90;;;;;;5069726;28;20211;-68
2021/12/13 08:46:57;;;;;;;12.10;2.27;;;21.40;99.90;;;;;;5072094;28;20218;-66
2021/12/13 08:49:24;;;;;;;13.30;1.87;;;21.30;99.90;;;;;;5074233;28;20181;-67
2021/12/13 08:52:21;;;;;;;9.33;2.43;;;21.20;99.90;;;;;;5072931;28;20230;-67
2021/12/13 08:55:00;;;;;;;11.97;2.30;;;21.20;99.90;;;;;;5073058;28;20707;-67
2021/12/13 08:57:48;;;;;;;10.60;2.40;;;21.00;99.90;;;;;;5073425;28;20212;-67
2021/12/13 09:00:15;;;;;;;11.07;2.40;;;20.80;99.90;;;;;;5072578;28;20652;-67
2021/12/13 09:02:48;;;;;;;15.77;4.37;;;20.80;99.90;;;;;;5069193;28;20179;-68
2021/12/13 09:05:22;;;;;;;10.37;2.93;;;20.70;99.90;;;;;;5073116;28;20241;-67
2021/12/13 09:08:15;;;;;;;9.93;2.30;;;20.60;99.90;;;;;;5072208;28;20186;-67
2021/12/13 09:10:50;;;;;;;10.30;1.83;;;20.60;99.90;;;;;;5055319;28;20240;-67
2021/12/13 09:13:32;;;;;;;14.43;2.80;;;20.50;99.90;;;;;;5066636;28;20180;-67
2021/12/13 09:16:00;;;;;;;14.93;2.80;;;20.50;99.90;;;;;;5073126;28;20211;-68
2021/12/13 09:18:28;;;;;;;15.37;3.37;;;20.50;99.90;;;;;;5071573;28;20183;-67
2021/12/13 09:20:57;;;;;;;13.73;2.63;;;20.40;99.90;;;;;;5069135;28;20178;-66
2021/12/13 09:23:35;;;;;;;17.60;2.53;;;20.40;99.90;;;;;;5073193;28;20232;-66
2021/12/13 09:26:09;;;;;;;13.87;3.23;;;20.30;99.90;;;;;;5070055;28;20234;-66
2021/12/13 09:29:02;;;;;;;9.57;2.43;;;20.40;99.90;;;;;;5073441;28;20170;-66
2021/12/13 09:31:34;;;;;;;8.30;1.70;;;20.40;99.90;;;;;;5072145;28;20175;-67
2021/12/13 09:34:09;;;;;;;10.13;2.03;;;20.30;99.90;;;;;;5073024;28;20190;-66
2021/12/13 09:36:40;;;;;;;10.10;2.40;;;20.30;99.90;;;;;;5072869;28;20179;-67
2021/12/13 09:39:22;;;;;;;9.97;2.57;;;20.30;99.90;;;;;;5072753;28;20179;-67
2021/12/13 09:41:53;;;;;;;15.50;2.43;;;20.30;99.90;;;;;;5072559;28;20191;-67
2021/12/13 09:44:33;;;;;;;11.03;2.37;;;20.30;99.90;;;;;;5072765;28;20888;-66
2021/12/13 09:47:06;;;;;;;9.73;2.30;;;20.30;99.90;;;;;;5071601;28;20546;-66
2021/12/13 09:49:41;;;;;;;12.80;2.23;;;20.20;99.90;;;;;;5069317;28;20209;-67
2021/12/13 09:52:19;;;;;;;8.33;1.90;;;20.10;99.90;;;;;;5069229;28;20190;-70
2021/12/13 09:55:04;;;;;;;16.33;2.53;;;20.10;99.90;;;;;;5072082;28;20223;-66
2021/12/13 09:57:44;;;;;;;11.63;2.47;;;20.10;99.90;;;;;;5072632;28;20221;-67
2021/12/13 10:00:23;;;;;;;14.27;2.23;;;20.10;99.90;;;;;;5070411;28;20163;-67
2021/12/13 10:02:55;;;;;;;9.47;2.23;;;20.10;99.90;;;;;;5072541;28;20644;-67
2021/12/13 10:05:28;;;;;;;9.60;2.00;;;20.10;99.90;;;;;;5072397;28;20218;-66
2021/12/13 10:08:01;;;;;;;9.80;2.00;;;20.00;99.90;;;;;;5072053;28;20197;-67
2021/12/13 10:10:46;;;;;;;9.27;2.20;;;20.10;99.90;;;;;;5054878;28;20191;-67
2021/12/13 10:13:21;;;;;;;10.63;2.33;;;20.00;99.90;;;;;;5071550;28;20203;-68
2021/12/13 10:15:56;;;;;;;16.33;3.00;;;20.00;99.90;;;;;;5071860;28;20183;-67
2021/12/13 10:18:28;;;;;;;11.17;2.30;;;20.00;99.90;;;;;;5069478;28;20730;-67
2021/12/13 10:21:00;;;;;;;12.37;2.33;;;20.00;99.90;;;;;;5070862;28;20179;-68
2021/12/13 10:23:32;;;;;;;13.13;1.93;;;19.90;99.90;;;;;;5070005;28;20191;-66
2021/12/13 10:26:03;;;;;;;11.07;2.80;;;19.90;99.90;;;;;;5070921;28;20221;-67
2021/12/13 10:28:37;;;;;;;16.13;5.00;;;19.80;99.90;;;;;;5072565;28;20203;-67
2021/12/13 10:31:13;;;;;;;8.97;2.63;;;19.90;99.90;;;;;;5071423;28;20202;-68
2021/12/13 10:33:40;;;;;;;14.77;2.80;;;19.80;99.90;;;;;;5072358;28;20226;-67
2021/12/13 10:36:09;;;;;;;12.03;2.03;;;19.80;99.90;;;;;;5071633;28;20187;-66
2021/12/13 10:38:40;;;;;;;11.77;1.50;;;19.90;99.90;;;;;;5070926;28;20183;-68
2021/12/13 10:41:15;;;;;;;11.63;2.80;;;19.80;99.90;;;;;;5068581;28;20183;-67
2021/12/13 10:43:47;;;;;;;10.37;2.37;;;19.80;99.90;;;;;;5069446;28;20178;-68
2021/12/13 10:46:25;;;;;;;13.13;2.30;;;19.80;99.90;;;;;;5069823;28;20268;-66
2021/12/13 10:48:59;;;;;;;13.83;2.67;;;19.80;99.90;;;;;;5069658;28;20179;-67
2021/12/13 10:51:34;;;;;;;12.90;2.10;;;19.80;99.90;;;;;;5070027;28;20190;-68
2021/12/13 10:54:12;;;;;;;12.43;2.20;;;19.70;99.90;;;;;;5061750;28;20250;-67
2021/12/13 10:56:54;;;;;;;12.00;1.83;;;19.70;99.90;;;;;;5070013;28;20270;-67
2021/12/13 10:59:25;;;;;;;12.13;1.90;;;19.70;99.90;;;;;;5069870;28;20554;-67
2021/12/13 11:01:57;;;;;;;12.00;2.43;;;19.70;99.90;;;;;;5070519;28;20183;-65
2021/12/13 11:04:34;;;;;;;8.57;2.70;;;19.60;99.90;;;;;;5070128;28;20285;-66
2021/12/13 11:07:07;;;;;;;12.63;2.40;;;19.60;99.90;;;;;;5069364;28;20321;-67
2021/12/13 11:09:41;;;;;;;11.63;2.20;;;19.60;99.90;;;;;;5050690;28;20179;-68
2021/12/13 11:12:25;;;;;;;15.87;2.27;;;19.60;99.90;;;;;;5071342;28;20188;-66
2021/12/13 11:14:57;;;;;;;13.73;2.93;;;19.60;99.90;;;;;;5062841;28;20543;-67
2021/12/13 11:17:28;;;;;;;14.27;2.70;;;19.60;99.90;;;;;;5070646;28;20185;-67
2021/12/13 11:19:59;;;;;;;6.60;2.27;;;19.60;99.90;;;;;;5070499;28;20541;-70
2021/12/13 11:22:32;;;;;;;11.93;2.80;;;19.60;99.90;;;;;;5055206;28;20186;-71
2021/12/13 11:25:09;;;;;;;15.23;2.50;;;19.60;99.90;;;;;;5069538;28;20207;-68
2021/12/13 11:27:37;;;;;;;15.97;2.10;;;19.50;99.90;;;;;;5074796;28;20167;-68
2021/12/13 11:30:20;;;;;;;8.83;2.07;;;19.60;99.90;;;;;;5074943;28;20186;-68
2021/12/13 11:33:00;;;;;;;15.70;2.23;;;19.50;99.90;;;;;;5074982;28;20649;-67
2021/12/13 11:35:48;;;;;;;8.33;2.17;;;19.50;99.90;;;;;;5075339;28;20523;-70
2021/12/13 11:38:26;;;;;;;9.10;1.70;;;19.50;99.90;;;;;;5075056;28;20187;-69
2021/12/13 11:41:24;;;;;;;10.73;1.97;;;19.60;99.90;;;;;;5071330;28;20695;-68
2021/12/13 11:44:35;;;;;;;10.77;1.93;;;19.60;99.90;;;;;;5074490;28;20213;-69
2021/12/13 11:47:35;;;;;;;14.13;2.70;;;19.60;99.90;;;;;;5063060;28;20661;-67
2021/12/13 11:50:27;;;;;;;13.63;2.40;;;19.70;99.90;;;;;;5073914;28;20183;-67
2021/12/13 11:53:18;;;;;;;10.90;2.00;;;19.70;99.90;;;;;;5074509;28;20235;-69
2021/12/13 11:56:07;;;;;;;11.93;2.47;;;19.70;99.90;;;;;;5074305;28;20207;-72
2021/12/13 11:58:58;;;;;;;11.93;2.30;;;19.70;99.90;;;;;;5075189;28;20183;-67
2021/12/13 12:02:18;;;;;;;17.10;1.90;;;19.80;99.90;;;;;;5074297;28;20188;-67
2021/12/13 12:05:22;;;;;;;10.03;1.93;;;19.80;99.90;;;;;;5032449;28;20315;-69
2021/12/13 12:08:16;;;;;;;7.80;2.10;;;19.80;99.90;;;;;;5030206;28;20196;-66
2021/12/13 12:10:53;;;;;;;14.73;2.70;;;19.80;99.90;;;;;;5070534;28;20270;-66
2021/12/13 12:13:38;;;;;;;11.80;2.40;;;19.80;99.90;;;;;;5074801;28;20175;-69
2021/12/13 12:16:07;;;;;;;7.40;1.53;;;19.80;99.90;;;;;;5069535;28;20191;-69
2021/12/13 12:18:38;;;;;;;15.87;2.20;;;19.80;99.90;;;;;;5055100;28;20183;-68
2021/12/13 12:21:39;;;;;;;15.63;2.93;;;19.80;99.90;;;;;;5074140;28;20194;-68
2021/12/13 12:24:13;;;;;;;10.27;2.10;;;19.70;99.90;;;;;;5067878;28;20529;-69
2021/12/13 12:26:42;;;;;;;6.87;1.83;;;19.60;99.90;;;;;;5074455;28;20186;-70
2021/12/13 12:29:18;;;;;;;13.07;2.27;;;19.50;99.90;;;;;;5074424;28;20198;-71
2021/12/13 12:31:50;;;;;;;12.70;2.17;;;19.50;99.90;;;;;;5073543;28;20676;-70
2021/12/13 12:34:18;;;;;;;10.13;1.80;;;19.50;99.90;;;;;;5074669;28;20199;-69
2021/12/13 12:36:58;;;;;;;12.80;2.27;;;19.50;99.90;;;;;;5073218;28;20183;-67
2021/12/13 12:39:58;;;;;;;13.13;2.10;;;19.50;99.90;;;;;;5073827;28;20187;-66
2021/12/13 12:42:46;;;;;;;14.43;2.63;;;19.40;99.90;;;;;;5071403;28;20175;-69
2021/12/13 12:45:22;;;;;;;8.93;2.30;;;19.30;99.90;;;;;;5074292;28;20218;-66
2021/12/13 12:47:58;;;;;;;9.67;1.90;;;19.20;99.90;;;;;;5074191;28;20327;-65
2021/12/13 12:50:39;;;;;;;13.23;2.33;;;19.10;99.90;;;;;;5073527;28;20282;-67
2021/12/13 12:53:09;;;;;;;13.57;2.33;;;19.10;99.90;;;;;;5073419;28;20187;-66
2021/12/13 12:55:57;;;;;;;11.07;2.67;;;19.00;99.90;;;;;;5073550;28;20219;-67
2021/12/13 12:58:29;;;;;;;7.80;2.63;;;19.00;99.90;;;;;;5074485;28;20699;-67
2021/12/13 13:01:00;;;;;;;9.07;2.60;;;18.90;99.90;;;;;;5067501;28;20176;-66
2021/12/13 13:03:31;;;;;;;12.87;2.60;;;18.90;99.90;;;;;;5071059;28;20183;-66
2021/12/13 13:06:09;;;;;;;13.17;2.50;;;18.80;99.90;;;;;;5067897;28;20248;-66
2021/12/13 13:08:40;;;;;;;9.47;2.10;;;18.80;99.90;;;;;;5072535;28;20626;-66
2021/12/13 13:11:35;;;;;;;13.37;2.47;;;18.80;99.90;;;;;;5068738;28;20183;-67
2021/12/13 13:14:20;;;;;;;15.80;2.77;;;18.80;99.90;;;;;;5069791;28;20207;-66
2021/12/13 13:16:51;;;;;;;9.73;2.20;;;18.70;99.90;;;;;;5072984;28;20602;-65
2021/12/13 13:19:35;;;;;;;14.00;2.80;;;18.80;99.90;;;;;;5072709;28;20300;-66
2021/12/13 13:22:10;;;;;;;11.00;2.40;;;18.70;99.90;;;;;;5070041;28;20608;-67
2021/12/13 13:24:53;;;;;;;16.70;2.83;;;18.70;99.90;;;;;;5072739;28;20218;-66
2021/12/13 13:27:26;;;;;;;4.67;1.87;;;18.70;99.90;;;;;;5073687;28;20176;-66
2021/12/13 13:29:54;;;;;;;11.40;2.60;;;18.70;99.90;;;;;;5073362;28;20195;-66
2021/12/13 13:32:22;;;;;;;10.87;2.47;;;18.70;99.90;;;;;;5073178;28;20190;-67
2021/12/13 13:34:56;;;;;;;13.37;2.43;;;18.70;99.90;;;;;;5072997;28;20294;-67
2021/12/13 13:37:37;;;;;;;11.23;2.43;;;18.70;99.90;;;;;;5069983;28;20185;-65
2021/12/13 13:40:07;;;;;;;14.57;2.57;;;18.60;99.90;;;;;;5072310;28;20187;-68